Avalon Airport

YMAV · Victoria, 澳大利亚

METAR YMAV · Avalon Airport

21 六月 07:00 LT
15m
罗盘
风向 的 风向 280° Avalon Airport 18/36
风: 7 kt, 3 beaufort


7 kt
改变
0 ft 1.000 2.000 3.000 4.000 5.000
Cloud Cloud Cloud Cloud
SCT 3.600
Cloud Cloud Cloud Cloud Cloud Cloud
BKN 4.200
Cloud Cloud Cloud Cloud Cloud Cloud Cloud Cloud
OVC 5.000
METAR YMAV 202100Z AUTO 28007KT 9999 // SCT036 BKN042 OVC050 07/06 Q1021

METAR Avalon Airport - YMAV/AVV

Avalon Airport是,澳大利亚中的中型机场。 该机场位于纬度-38,04084和经度144,46715。 该机场有一条跑道: 18/36. 本场的ICAO机场代码为YMAV。 该机场的IATA代码为AVV。 机场在Melbourne FIR中。

该航空气象观测是针对Avalon Airport在2024年6月21日 07:00, 当地时间进行的。

机场观察

风向为280°,速度为7 kt。

可见度为10 km 或者更多。

有疏云,零星散落的云朵在3.600 ft的高度, 碎云在4.200 ft的高度 和 乌云密布在5.000 ft的高度。 破损或更高的上限为4.200 ft。

温度为7 °C,阵风为3 °C。 露点为6 °C,相对湿度为93%。 海平面上的气压为1021 hPa (QNH)。

白天

今天,太阳从07:38升起,在17:09降落。 这适用于Avalon Airport,世界夏令时可能有所不同。 当地时间与世界标准时间之间的时差为+10 小时。 夏令时目前正在进行中。

公司介绍

我们没有关于这个机场的公司信息。

体会

到Vliegles.nl去找飞行课程,跳伞和其他飞行体验。 浏览页面,了解Avalon Airport附近所有可用的活动。 你也可以使用搜索功能来寻找你所在地附近的特定飞行课程、跳伞或其他飞行体验。

跑道

Id 标题 侧风 逆风 侧风 %
18/36 187°-007° 7 kt 100 %

逆风成分最大的方向会被突出显示,并用于横风计算。 这并不一定意味着这个方向在使用。

乌云

3.600 ft SCT 疏云,零星散落的云朵
4.200 ft BKN 碎云
5.000 ft OVC 乌云密布

温度 & 天气

温度 7 °C
露点 6 °C
相对湿度 93%
风寒 3 °C
Kp-index 0 (0-9)

白天

日出
07:38 (23m)
中午
12:23
日落
17:09

小工具

你想在你的网站上有一个关于Avalon Airport的当前航空天气(METAR)的小部件吗?

显示HTML代码
报告变更